»·PEaware :: UAL2348 KPDX-KSFO

UAL2348 :: KPDX-KSFO

FLIGHT INFORMATION

Flight Status: Arrived
Operator:
United Airlines
More flights by this operator :: More flights under this callsign
Pilot: Trevor D. (19070)
Aircraft: AIRBUS A319
(A319)
More flights by this aircraft type
Origin: KPDX Portland Intl
United States
Destination: KSFO San Francisco Intl
United States
More flights between these airports :: More routes between these airports
Route: MINNE5 EASON Q1 ETCHY DCT MLBEC BDEGA3
File this flight plan on PilotEdge
Remarks:
Altitude:
(Current/Filed)
37,000ft
Speed:
(Current/Filed)
400kts
Departed: 19-May-19 09:12 AM
Arrived: 19-May-19 10:40 AM
Distance/Time
Traveled:
478nm/1:28
Distance/Time
To Go:
Arrived

Flight Plot

Page will automatically refresh every two minutes.

Flight plan parsing failed; only flown route is shown


Map Options




Map Legend


Flown Route
Filed Route
Departure Airport
Arrival Airport
Navaid (VOR, NDB)
Fix

Horizontal Profiles

Position Reports

Time Latitude Longitude Heading Altitude Ground
Speed
19-May-19 08:48 45.590223 -122.591581 209 38ft 0kts
19-May-19 08:49 45.590223 -122.591581 209 38ft 0kts
19-May-19 08:50 45.590223 -122.591581 209 38ft 0kts
19-May-19 08:51 45.590223 -122.591581 209 38ft 0kts
19-May-19 08:52 45.590223 -122.591581 209 38ft 0kts
19-May-19 08:53 45.590223 -122.591581 209 38ft 0kts
19-May-19 08:54 45.590223 -122.591581 209 38ft 0kts
19-May-19 08:55 45.590223 -122.591581 209 38ft 0kts
19-May-19 08:56 45.590223 -122.591581 209 38ft 0kts
19-May-19 08:57 45.590223 -122.591581 209 38ft 0kts
19-May-19 08:58 45.590223 -122.591581 209 38ft 0kts
19-May-19 08:59 45.590223 -122.591581 209 38ft 0kts
19-May-19 09:00 45.590223 -122.591581 209 38ft 0kts
19-May-19 09:00 45.590223 -122.591581 209 38ft 0kts
19-May-19 09:02 45.590223 -122.591581 209 38ft 0kts
19-May-19 09:03 45.590281 -122.591534 209 38ft 2kts
19-May-19 09:03 45.590686 -122.591143 236 38ft 2kts
19-May-19 09:04 45.590696 -122.590446 300 38ft 1kts
19-May-19 09:06 45.590687 -122.590422 299 38ft 0kts
19-May-19 09:06 45.590687 -122.590422 299 38ft 0kts
19-May-19 09:07 45.590688 -122.590426 299 38ft 0kts
19-May-19 09:08 45.592391 -122.594817 298 38ft 19kts
19-May-19 09:09 45.594359 -122.597658 43 38ft 0kts
19-May-19 09:10 45.594642 -122.597206 52 38ft 10kts
19-May-19 09:11 45.584953 -122.570235 118 153ft 171kts
19-May-19 09:12 45.572489 -122.503552 101 2527ft 195kts
19-May-19 09:13 45.557016 -122.413351 104 4676ft 267kts
19-May-19 09:14 45.522327 -122.323594 162 8083ft 278kts
19-May-19 09:15 45.444449 -122.319886 200 10729ft 311kts
19-May-19 09:16 45.395534 -122.427547 245 13224ft 345kts
19-May-19 09:17 45.355658 -122.554932 244 15789ft 358kts
19-May-19 09:18 45.313767 -122.685998 243 18162ft 370kts
19-May-19 09:19 45.270345 -122.821069 242 20322ft 381kts
19-May-19 09:20 45.221829 -122.956795 222 22249ft 384kts
19-May-19 09:21 45.126839 -123.018247 194 23867ft 383kts
19-May-19 09:22 45.026106 -123.068353 194 25476ft 393kts
19-May-19 09:23 44.921854 -123.120476 194 26954ft 402kts
19-May-19 09:24 44.815947 -123.173165 193 28388ft 408kts
19-May-19 09:25 44.708010 -123.226745 192 29652ft 416kts
19-May-19 09:26 44.598304 -123.280949 192 30789ft 423kts
19-May-19 09:27 44.485002 -123.320962 181 31652ft 422kts
19-May-19 09:28 44.369290 -123.323889 173 32642ft 417kts
19-May-19 09:29 44.254238 -123.319434 173 33560ft 418kts
19-May-19 09:30 44.137835 -123.314789 174 34387ft 418kts
19-May-19 09:31 44.021107 -123.310142 174 35074ft 420kts
19-May-19 09:32 43.903935 -123.305496 175 35712ft 421kts
19-May-19 09:33 43.786211 -123.300947 176 36174ft 425kts
19-May-19 09:34 43.668119 -123.296359 176 36634ft 426kts
19-May-19 09:35 43.548838 -123.291710 176 36810ft 428kts
19-May-19 09:36 43.430059 -123.287101 176 36811ft 429kts
19-May-19 09:37 43.310961 -123.282524 176 36811ft 429kts
19-May-19 09:38 43.191383 -123.277923 176 36811ft 429kts
19-May-19 09:39 43.072092 -123.273326 177 36806ft 430kts
19-May-19 09:40 42.952017 -123.268735 177 36796ft 431kts
19-May-19 09:41 42.833743 -123.264239 177 36792ft 431kts
19-May-19 09:42 42.713595 -123.259675 177 36794ft 432kts
19-May-19 09:43 42.593481 -123.255098 177 36788ft 433kts
19-May-19 09:44 42.473171 -123.250552 177 36777ft 433kts
19-May-19 09:45 42.352607 -123.246148 177 36774ft 434kts
19-May-19 09:46 42.232013 -123.241747 177 36774ft 434kts
19-May-19 09:47 42.111127 -123.237309 177 36774ft 435kts
19-May-19 09:48 41.989854 -123.232875 178 36774ft 435kts
19-May-19 09:49 41.868559 -123.228443 178 36775ft 438kts
19-May-19 09:50 41.746759 -123.224026 178 36783ft 438kts
19-May-19 09:51 41.625297 -123.219587 178 36783ft 438kts
19-May-19 09:52 41.503525 -123.215415 178 36783ft 438kts
19-May-19 09:53 41.381470 -123.211178 178 36783ft 438kts
19-May-19 09:54 41.259851 -123.207641 179 36779ft 438kts
19-May-19 09:55 41.137844 -123.204659 179 36775ft 439kts
19-May-19 09:56 41.015524 -123.201583 179 36774ft 439kts
19-May-19 09:57 40.894739 -123.198559 179 36773ft 440kts
19-May-19 09:58 40.772017 -123.195510 179 36774ft 441kts
19-May-19 09:59 40.649687 -123.192463 180 36777ft 441kts
19-May-19 10:00 40.526794 -123.189404 180 36782ft 442kts
19-May-19 10:01 40.403748 -123.186341 180 36783ft 442kts
19-May-19 10:02 40.280370 -123.183301 180 36783ft 443kts
19-May-19 10:03 40.157252 -123.180258 180 36787ft 443kts
19-May-19 10:04 40.034199 -123.177185 180 36791ft 444kts
19-May-19 10:05 39.910398 -123.173354 180 36792ft 446kts
19-May-19 10:06 39.791168 -123.167690 180 36792ft 446kts
19-May-19 10:07 39.667404 -123.161933 180 36792ft 446kts
19-May-19 10:08 39.542822 -123.156230 180 36792ft 454kts
19-May-19 10:09 39.416356 -123.150409 180 36417ft 455kts
19-May-19 10:10 39.291469 -123.144639 180 35436ft 455kts
19-May-19 10:11 39.164922 -123.138108 177 33631ft 459kts
19-May-19 10:12 39.042637 -123.094164 154 31281ft 457kts
19-May-19 10:13 38.937098 -123.010303 148 29603ft 440kts
19-May-19 10:14 38.830380 -122.946119 168 27854ft 425kts
19-May-19 10:15 38.717193 -122.913222 168 26167ft 412kts
19-May-19 10:16 38.607395 -122.880761 168 24529ft 398kts
19-May-19 10:17 38.501376 -122.849582 168 23020ft 388kts
19-May-19 10:18 38.398692 -122.819408 169 21436ft 371kts
19-May-19 10:19 38.300118 -122.790443 169 19946ft 354kts
19-May-19 10:20 38.206229 -122.763023 169 18487ft 340kts
19-May-19 10:21 38.113290 -122.736093 169 16499ft 342kts
19-May-19 10:22 38.023868 -122.710061 170 15509ft 314kts
19-May-19 10:23 37.942350 -122.686415 171 14511ft 292kts
19-May-19 10:24 37.869690 -122.643455 143 13257ft 293kts
19-May-19 10:25 37.808715 -122.578159 144 11998ft 286kts
19-May-19 10:26 37.748804 -122.514694 144 10994ft 268kts
19-May-19 10:27 37.694454 -122.456998 144 10990ft 254kts
19-May-19 10:28 37.640531 -122.399700 144 10991ft 254kts
19-May-19 10:29 37.583749 -122.349603 164 10648ft 247kts
19-May-19 10:30 37.520980 -122.315181 158 9359ft 249kts
19-May-19 10:31 37.475671 -122.253722 118 7704ft 263kts
19-May-19 10:32 37.446058 -122.173256 112 5919ft 246kts
19-May-19 10:33 37.481073 -122.119391 341 4133ft 231kts
19-May-19 10:34 37.528931 -122.163957 298 3108ft 210kts
19-May-19 10:35 37.557520 -122.228630 294 2316ft 212kts
19-May-19 10:36 37.581305 -122.285579 296 1309ft 148kts
19-May-19 10:37 37.598348 -122.326356 295 652ft 127kts
19-May-19 10:38 37.614586 -122.365250 295 13ft 110kts
19-May-19 10:39 37.619615 -122.379387 237 31ft 6kts
19-May-19 10:40 37.620108 -122.383100 297 32ft 19kts
19-May-19 10:41 37.622620 -122.389517 259 30ft 17kts
19-May-19 10:42 37.619984 -122.391143 118 32ft 12kts
19-May-19 10:43 37.617823 -122.388901 160 32ft 3kts
19-May-19 10:44 37.617680 -122.388833 159 32ft 0kts
19-May-19 10:45 37.617680 -122.388833 159 32ft 0kts
19-May-19 10:46 37.617680 -122.388833 159 32ft 0kts
19-May-19 10:47 37.617680 -122.388833 159 32ft 0kts

Navigation Log

Ident Type
Flight plan parsing failed, navigation log unavailable